createdAt,value
2023-12-26T00:02:09.881Z,14.32
2023-12-26T00:04:39.231Z,17.88
2023-12-26T00:07:08.402Z,13.63
2023-12-26T00:09:41.306Z,13.27
2023-12-26T00:12:12.066Z,17.35
2023-12-26T00:14:41.444Z,13.93
2023-12-26T00:17:10.639Z,14.20
2023-12-26T00:19:39.900Z,12.32
2023-12-26T00:22:09.095Z,16.80
2023-12-26T00:24:38.271Z,14.63
2023-12-26T00:27:07.636Z,14.05
2023-12-26T00:29:38.991Z,14.07
2023-12-26T00:32:08.560Z,14.55
2023-12-26T00:34:37.939Z,15.52
2023-12-26T00:37:07.373Z,15.40
2023-12-26T00:39:36.887Z,15.13
2023-12-26T00:42:06.658Z,13.52
2023-12-26T00:44:35.981Z,17.95
2023-12-26T00:47:06.821Z,17.92
2023-12-26T00:49:36.043Z,15.05
2023-12-26T00:52:05.608Z,14.10
2023-12-26T00:54:37.307Z,14.48
2023-12-26T00:57:07.094Z,17.65
2023-12-26T00:59:36.863Z,17.13
2023-12-26T01:02:07.490Z,16.58
2023-12-26T01:04:36.756Z,15.02
2023-12-26T01:07:07.120Z,16.40
2023-12-26T01:09:36.420Z,17.35
2023-12-26T01:12:06.465Z,16.20
2023-12-26T01:14:36.633Z,13.75
2023-12-26T01:17:08.837Z,13.13
2023-12-26T01:19:38.138Z,16.95
2023-12-26T01:22:07.509Z,16.27
2023-12-26T01:24:36.760Z,15.85
2023-12-26T01:27:06.388Z,15.93
2023-12-26T01:29:35.614Z,15.18
2023-12-26T01:32:04.893Z,17.50
2023-12-26T01:34:35.561Z,12.90
2023-12-26T01:37:05.008Z,15.05
2023-12-26T01:39:34.726Z,14.80
2023-12-26T01:42:04.014Z,17.98
2023-12-26T01:44:33.394Z,17.75
2023-12-26T01:47:03.472Z,15.35
2023-12-26T01:49:34.585Z,16.88
2023-12-26T01:52:06.615Z,14.23
2023-12-26T01:54:38.403Z,17.92
2023-12-26T01:57:09.245Z,19.30
2023-12-26T01:59:40.055Z,16.35
2023-12-26T02:02:10.157Z,20.77
2023-12-26T02:04:41.221Z,19.42
2023-12-26T02:07:10.509Z,17.25
2023-12-26T02:09:41.312Z,14.68
2023-12-26T02:12:11.252Z,15.65
2023-12-26T02:14:40.801Z,18.52
2023-12-26T02:17:18.465Z,15.52
2023-12-26T02:19:50.114Z,15.35
2023-12-26T02:22:20.174Z,16.73
2023-12-26T02:24:51.013Z,23.05
2023-12-26T02:27:23.058Z,17.00
2023-12-26T02:29:54.351Z,18.58
2023-12-26T02:32:27.287Z,19.17
2023-12-26T02:35:01.608Z,20.67
2023-12-26T02:37:33.674Z,18.90
2023-12-26T02:40:06.231Z,22.40
2023-12-26T02:42:36.402Z,20.70
2023-12-26T02:45:06.649Z,17.45
2023-12-26T02:47:36.404Z,21.80
2023-12-26T02:50:07.487Z,20.92
2023-12-26T02:52:36.821Z,24.30
2023-12-26T02:55:08.027Z,18.42
2023-12-26T02:57:37.200Z,18.48
2023-12-26T03:00:08.299Z,19.20
2023-12-26T03:02:37.606Z,21.75
2023-12-26T03:05:07.587Z,23.30
2023-12-26T03:07:36.733Z,19.35
2023-12-26T03:10:10.475Z,19.38
2023-12-26T03:12:39.785Z,22.13
2023-12-26T03:15:10.135Z,20.55
2023-12-26T03:17:39.718Z,22.42
2023-12-26T03:20:09.811Z,23.55
2023-12-26T03:22:40.843Z,22.48
2023-12-26T03:25:11.818Z,27.80
2023-12-26T03:27:41.580Z,18.88
2023-12-26T03:30:11.492Z,18.95
2023-12-26T03:32:41.921Z,23.42
2023-12-26T03:35:11.718Z,18.85
2023-12-26T03:37:42.249Z,22.40
2023-12-26T03:40:15.299Z,22.95
2023-12-26T03:42:44.855Z,19.70
2023-12-26T03:45:14.748Z,22.63
2023-12-26T03:47:44.790Z,20.05
2023-12-26T03:50:14.539Z,20.80
2023-12-26T03:52:43.760Z,21.27
2023-12-26T03:55:15.847Z,22.92
2023-12-26T03:57:45.087Z,21.23
2023-12-26T04:00:15.793Z,22.33
2023-12-26T04:02:47.581Z,21.30
2023-12-26T04:05:18.435Z,21.00
2023-12-26T04:07:48.404Z,22.33
2023-12-26T04:10:19.492Z,21.02
2023-12-26T04:12:48.762Z,21.25
2023-12-26T04:15:18.164Z,20.63
2023-12-26T04:17:47.578Z,21.25
2023-12-26T04:20:17.025Z,21.50
2023-12-26T04:22:46.248Z,20.92
2023-12-26T04:25:15.818Z,21.50
2023-12-26T04:27:46.745Z,22.25
2023-12-26T04:30:16.363Z,22.10
2023-12-26T04:32:46.168Z,20.90
2023-12-26T04:35:16.491Z,23.95
2023-12-26T04:37:45.802Z,19.67
2023-12-26T04:40:15.269Z,22.98
2023-12-26T04:42:45.909Z,24.63
2023-12-26T04:45:14.898Z,19.20
2023-12-26T04:47:44.260Z,25.40
2023-12-26T04:50:13.603Z,22.95
2023-12-26T04:52:42.819Z,20.35
2023-12-26T04:55:12.276Z,20.75
2023-12-26T04:57:42.172Z,24.73
2023-12-26T05:00:14.744Z,21.38
2023-12-26T05:02:44.786Z,23.52
2023-12-26T05:05:14.689Z,22.88
2023-12-26T05:07:44.219Z,25.88
2023-12-26T05:10:13.762Z,21.13
2023-12-26T05:12:42.997Z,23.98
2023-12-26T05:15:13.922Z,21.35
2023-12-26T05:17:43.477Z,20.08
2023-12-26T05:20:21.772Z,20.02
2023-12-26T05:23:00.106Z,23.30
2023-12-26T05:25:30.648Z,21.48
2023-12-26T05:28:00.567Z,21.10
2023-12-26T05:30:32.402Z,20.98
2023-12-26T05:33:02.484Z,25.70
2023-12-26T05:35:32.061Z,23.42
2023-12-26T05:38:02.024Z,22.98
2023-12-26T05:40:31.727Z,27.60
2023-12-26T05:43:01.381Z,24.23
2023-12-26T05:45:34.376Z,21.38
2023-12-26T05:48:04.005Z,25.25
2023-12-26T05:50:33.609Z,23.30
2023-12-26T05:53:05.137Z,24.60
2023-12-26T05:55:53.117Z,23.63
2023-12-26T05:58:42.184Z,26.15
2023-12-26T06:01:13.707Z,19.92
2023-12-26T06:03:43.546Z,26.27
2023-12-26T06:06:14.084Z,21.58
2023-12-26T06:08:45.522Z,19.85
2023-12-26T06:11:15.525Z,22.98
2023-12-26T06:13:44.773Z,25.63
2023-12-26T06:16:15.385Z,27.38
2023-12-26T06:18:44.906Z,23.42
2023-12-26T06:21:14.248Z,32.47
2023-12-26T06:23:43.592Z,29.70
2023-12-26T06:26:18.678Z,27.95
2023-12-26T06:28:48.235Z,20.60
2023-12-26T06:31:20.613Z,25.50
2023-12-26T06:34:01.649Z,24.90
2023-12-26T06:36:33.625Z,26.20
2023-12-26T06:39:04.916Z,29.63
2023-12-26T06:41:34.838Z,26.25
2023-12-26T06:44:04.363Z,27.58
2023-12-26T06:46:35.734Z,39.95
2023-12-26T06:49:05.408Z,29.77
2023-12-26T06:51:34.714Z,28.55
2023-12-26T06:54:04.161Z,27.25
2023-12-26T06:56:34.473Z,29.63
2023-12-26T06:59:03.910Z,24.30
2023-12-26T07:01:35.242Z,26.65
2023-12-26T07:04:06.524Z,33.80
2023-12-26T07:06:36.679Z,29.48
2023-12-26T07:09:06.344Z,26.83
2023-12-26T07:11:35.576Z,30.98
2023-12-26T07:14:04.865Z,28.83
2023-12-26T07:16:37.010Z,29.92
2023-12-26T07:19:08.806Z,32.05
2023-12-26T07:21:40.191Z,30.15
2023-12-26T07:24:11.158Z,32.55
2023-12-26T07:26:40.493Z,32.67
2023-12-26T07:29:10.024Z,41.95
2023-12-26T07:31:42.128Z,49.35
2023-12-26T07:34:11.797Z,46.50
2023-12-26T07:36:41.614Z,49.03
2023-12-26T07:39:11.232Z,56.75
2023-12-26T07:41:40.427Z,52.30
2023-12-26T07:44:10.153Z,46.83
2023-12-26T07:46:40.819Z,47.13
2023-12-26T07:49:18.041Z,44.67
2023-12-26T07:51:47.539Z,37.63
2023-12-26T07:54:17.672Z,43.28
2023-12-26T07:56:47.010Z,41.60
2023-12-26T07:59:16.977Z,44.60
2023-12-26T08:01:47.873Z,38.50
2023-12-26T08:04:17.244Z,47.92
2023-12-26T08:06:46.494Z,36.47
2023-12-26T08:09:15.771Z,41.72
2023-12-26T08:11:45.517Z,40.35
2023-12-26T08:14:19.166Z,39.83
2023-12-26T08:16:50.095Z,36.60
2023-12-26T08:19:21.305Z,38.83
2023-12-26T08:21:50.963Z,36.08
2023-12-26T08:24:20.382Z,34.53
2023-12-26T08:26:54.305Z,33.88
2023-12-26T08:29:42.063Z,34.97
2023-12-26T08:32:12.792Z,36.17
2023-12-26T08:34:45.431Z,34.53
2023-12-26T08:37:50.927Z,40.05
2023-12-26T08:40:21.528Z,37.05
2023-12-26T08:42:50.951Z,41.58
2023-12-26T08:45:20.497Z,34.55
2023-12-26T08:47:54.592Z,33.72
2023-12-26T08:50:24.149Z,31.48
2023-12-26T08:52:53.956Z,28.25
2023-12-26T08:55:23.516Z,31.88
2023-12-26T08:57:52.808Z,27.60
2023-12-26T09:00:22.136Z,22.08
2023-12-26T09:03:11.926Z,23.52
2023-12-26T09:05:42.631Z,23.63
2023-12-26T09:08:12.362Z,21.75
2023-12-26T09:10:41.720Z,14.20
2023-12-26T09:13:28.172Z,19.25
2023-12-26T09:15:57.835Z,13.20
2023-12-26T09:18:33.015Z,12.48
2023-12-26T09:21:14.471Z,11.13
2023-12-26T09:23:49.317Z,10.65
2023-12-26T09:26:22.901Z,9.23
2023-12-26T09:28:52.271Z,10.38
2023-12-26T09:31:21.737Z,9.30
2023-12-26T09:33:52.694Z,7.63
2023-12-26T09:36:22.901Z,10.48
2023-12-26T09:38:52.192Z,5.63
2023-12-26T09:41:25.638Z,6.47
2023-12-26T09:43:55.402Z,6.30
2023-12-26T09:46:24.796Z,5.93
2023-12-26T09:48:56.266Z,4.50
2023-12-26T09:51:26.346Z,4.85
2023-12-26T09:53:59.594Z,6.63
2023-12-26T09:56:38.564Z,7.40
2023-12-26T09:59:16.573Z,7.65
2023-12-26T10:01:46.790Z,7.55
2023-12-26T10:04:17.508Z,9.10
2023-12-26T10:06:47.009Z,8.95
2023-12-26T10:09:19.162Z,7.40
2023-12-26T10:11:48.602Z,5.82
2023-12-26T10:14:30.030Z,6.75
2023-12-26T10:17:00.294Z,7.60
2023-12-26T10:19:31.028Z,5.40
2023-12-26T10:22:00.426Z,6.63
2023-12-26T10:24:31.142Z,6.68
2023-12-26T10:27:01.531Z,6.78
2023-12-26T10:29:30.834Z,4.95
2023-12-26T10:32:03.423Z,5.13
2023-12-26T10:34:34.755Z,7.88
2023-12-26T10:37:04.250Z,3.80
2023-12-26T10:39:33.490Z,5.45
2023-12-26T10:42:05.324Z,3.42
2023-12-26T10:44:59.272Z,5.35
2023-12-26T10:47:30.462Z,4.53
2023-12-26T10:50:02.904Z,2.47
2023-12-26T10:52:42.454Z,2.78
2023-12-26T10:55:19.758Z,1.90
2023-12-26T10:57:49.698Z,3.00
2023-12-26T11:01:13.425Z,1.90
2023-12-26T11:04:56.392Z,2.20
2023-12-26T11:08:39.094Z,3.10
2023-12-26T11:12:20.988Z,5.32
2023-12-26T11:16:16.138Z,2.08
2023-12-26T11:20:12.170Z,2.70
2023-12-26T11:24:13.254Z,6.53
2023-12-26T11:28:08.262Z,2.50
2023-12-26T11:31:55.029Z,3.20
2023-12-26T11:35:50.249Z,3.22
2023-12-26T11:39:45.222Z,1.58
2023-12-26T11:43:40.140Z,2.20
2023-12-26T11:47:36.229Z,2.65
2023-12-26T11:51:36.121Z,1.88
2023-12-26T11:55:31.108Z,1.55
2023-12-26T11:59:27.024Z,1.02
2023-12-26T12:03:26.307Z,0.98
2023-12-26T12:07:17.832Z,1.80
2023-12-26T12:11:10.005Z,0.75
2023-12-26T12:14:53.171Z,2.20
2023-12-26T12:18:46.286Z,1.60
2023-12-26T12:22:38.867Z,1.65
2023-12-26T12:26:40.184Z,1.33
2023-12-26T12:30:35.255Z,1.58
2023-12-26T12:34:36.238Z,2.28
2023-12-26T12:38:30.948Z,2.25
2023-12-26T12:42:27.165Z,2.22
2023-12-26T12:46:23.113Z,1.90
2023-12-26T12:50:11.884Z,1.90
2023-12-26T12:54:04.349Z,1.33
2023-12-26T12:57:57.080Z,1.55
2023-12-26T13:01:58.042Z,3.15
2023-12-26T13:06:00.219Z,1.58
2023-12-26T13:09:55.273Z,1.58
2023-12-26T13:13:56.900Z,1.35
2023-12-26T13:17:58.573Z,1.67
2023-12-26T13:21:48.519Z,2.92
2023-12-26T13:25:44.189Z,1.75
2023-12-26T13:29:42.231Z,1.83
2023-12-26T13:33:34.229Z,1.60
2023-12-26T13:37:26.147Z,1.17
2023-12-26T13:41:23.026Z,1.52
2023-12-26T13:45:21.211Z,2.35
2023-12-26T13:49:16.205Z,1.42
2023-12-26T13:52:06.070Z,1.38
2023-12-26T13:54:34.610Z,1.73
2023-12-26T13:57:08.160Z,1.52
2023-12-26T13:59:37.624Z,1.60
2023-12-26T14:02:07.196Z,1.55
2023-12-26T14:04:40.672Z,1.60
2023-12-26T14:07:11.808Z,1.92
2023-12-26T14:09:40.049Z,1.23
2023-12-26T14:12:09.542Z,1.92
2023-12-26T14:14:39.134Z,1.48
2023-12-26T14:17:08.397Z,1.23
2023-12-26T14:19:37.770Z,2.08
2023-12-26T14:22:07.194Z,1.73
2023-12-26T14:24:38.400Z,0.85
2023-12-26T14:27:09.718Z,1.25
2023-12-26T14:29:39.180Z,1.77
2023-12-26T14:32:08.572Z,3.90
2023-12-26T14:34:38.056Z,1.83
2023-12-26T14:37:07.594Z,1.52
2023-12-26T14:39:38.374Z,1.73
2023-12-26T14:42:08.123Z,2.00
2023-12-26T14:44:37.401Z,2.67
2023-12-26T14:47:06.800Z,2.45
2023-12-26T14:49:37.914Z,2.10
2023-12-26T14:52:07.513Z,1.88
2023-12-26T14:54:38.239Z,4.00
2023-12-26T14:57:08.696Z,1.67
2023-12-26T14:59:56.653Z,3.33
2023-12-26T15:02:26.632Z,1.55
2023-12-26T15:05:14.452Z,3.53
2023-12-26T15:07:43.891Z,4.50
2023-12-26T15:10:33.362Z,3.78
2023-12-26T15:13:02.851Z,2.80
2023-12-26T15:15:32.218Z,2.97
2023-12-26T15:18:03.784Z,2.42
2023-12-26T15:20:33.277Z,3.67
2023-12-26T15:23:03.040Z,1.13
2023-12-26T15:25:33.721Z,2.97
2023-12-26T15:28:03.173Z,1.35
2023-12-26T15:31:22.337Z,1.77
2023-12-26T15:33:52.028Z,2.28
2023-12-26T15:36:22.723Z,3.03
2023-12-26T15:38:52.679Z,2.08
2023-12-26T15:41:25.362Z,3.30
2023-12-26T15:43:55.959Z,2.17
2023-12-26T15:46:26.437Z,2.35
2023-12-26T15:48:55.751Z,2.08
2023-12-26T15:51:29.164Z,1.85
2023-12-26T15:54:01.925Z,2.08
2023-12-26T15:56:32.953Z,1.75
2023-12-26T15:59:02.823Z,2.03
2023-12-26T16:01:34.564Z,1.90
2023-12-26T16:04:03.952Z,2.30
2023-12-26T16:06:34.953Z,3.00
2023-12-26T16:09:04.378Z,2.80
2023-12-26T16:11:36.674Z,2.97
2023-12-26T16:14:09.304Z,3.50
2023-12-26T16:16:41.082Z,4.35
2023-12-26T16:19:15.293Z,2.33
2023-12-26T16:21:44.666Z,4.57
2023-12-26T16:24:18.598Z,1.70
2023-12-26T16:27:21.957Z,2.17
2023-12-26T16:29:53.841Z,3.08
2023-12-26T16:32:24.021Z,3.22
2023-12-26T16:34:53.534Z,2.25
2023-12-26T16:37:24.320Z,2.88
2023-12-26T16:39:54.041Z,4.20
2023-12-26T16:42:24.742Z,2.47
2023-12-26T16:44:55.301Z,3.08
2023-12-26T16:47:24.573Z,5.53
2023-12-26T16:49:55.306Z,3.55
2023-12-26T16:52:26.757Z,5.68
2023-12-26T16:54:56.125Z,1.80
2023-12-26T16:57:28.320Z,3.90
2023-12-26T16:59:57.574Z,3.38
2023-12-26T17:02:26.889Z,3.47
2023-12-26T17:04:56.182Z,2.10
2023-12-26T17:07:25.363Z,2.47
2023-12-26T17:09:54.849Z,1.88
2023-12-26T17:12:25.712Z,2.33
2023-12-26T17:14:56.927Z,2.50
2023-12-26T17:17:28.185Z,3.42
2023-12-26T17:19:57.432Z,3.75
2023-12-26T17:22:26.772Z,3.78
2023-12-26T17:24:57.174Z,2.25
2023-12-26T17:27:27.673Z,3.30
2023-12-26T17:29:58.324Z,3.80
2023-12-26T17:32:27.643Z,4.93
2023-12-26T17:34:58.054Z,5.35
2023-12-26T17:37:28.729Z,6.05
2023-12-26T17:39:58.886Z,3.90
2023-12-26T17:42:28.375Z,3.08
2023-12-26T17:44:59.760Z,3.88
2023-12-26T17:47:29.456Z,5.45
2023-12-26T17:49:58.929Z,4.20
2023-12-26T17:52:28.257Z,4.95
2023-12-26T17:54:57.586Z,4.40
2023-12-26T17:57:27.437Z,6.60
2023-12-26T17:59:56.682Z,5.95
2023-12-26T18:02:27.627Z,4.90
2023-12-26T18:04:57.865Z,4.90
2023-12-26T18:07:27.159Z,4.25
2023-12-26T18:09:56.533Z,6.82
2023-12-26T18:12:25.918Z,4.95
2023-12-26T18:14:55.152Z,7.55
2023-12-26T18:17:24.823Z,8.38
2023-12-26T18:19:56.049Z,6.28
2023-12-26T18:22:25.425Z,9.27
2023-12-26T18:24:54.588Z,5.60
2023-12-26T18:27:25.026Z,7.38
2023-12-26T18:29:54.556Z,5.75
2023-12-26T18:32:23.943Z,7.10
2023-12-26T18:34:55.662Z,5.82
2023-12-26T18:37:25.426Z,6.15
2023-12-26T18:40:13.693Z,5.88
2023-12-26T18:42:42.955Z,4.65
2023-12-26T18:45:13.926Z,6.40
2023-12-26T18:47:45.473Z,5.43
2023-12-26T18:50:17.032Z,6.22
2023-12-26T18:52:46.505Z,3.53
2023-12-26T18:55:16.468Z,6.68
2023-12-26T18:57:46.160Z,9.10
2023-12-26T19:00:16.686Z,6.78
2023-12-26T19:02:46.160Z,6.45
2023-12-26T19:05:20.425Z,7.75
2023-12-26T19:07:49.645Z,6.97
2023-12-26T19:10:19.289Z,9.70
2023-12-26T19:12:50.033Z,7.65
2023-12-26T19:15:21.662Z,7.00
2023-12-26T19:17:51.425Z,7.82
2023-12-26T19:20:22.433Z,7.63
2023-12-26T19:22:51.635Z,6.68
2023-12-26T19:25:20.793Z,8.00
2023-12-26T19:27:50.036Z,7.63
2023-12-26T19:30:19.339Z,6.72
2023-12-26T19:32:48.827Z,10.15
2023-12-26T19:35:18.098Z,7.45
2023-12-26T19:37:48.827Z,7.47
2023-12-26T19:40:19.919Z,10.25
2023-12-26T19:42:50.262Z,10.85
2023-12-26T19:45:20.489Z,10.60
2023-12-26T19:47:50.178Z,6.10
2023-12-26T19:50:19.936Z,7.07
2023-12-26T19:52:50.664Z,7.63
2023-12-26T19:55:20.066Z,9.02
2023-12-26T19:57:49.438Z,7.88
2023-12-26T20:00:20.764Z,10.55
2023-12-26T20:02:50.521Z,11.55
2023-12-26T20:05:19.956Z,7.47
2023-12-26T20:07:50.706Z,8.93
2023-12-26T20:10:20.514Z,8.35
2023-12-26T20:12:49.993Z,7.18
2023-12-26T20:15:19.318Z,7.78
2023-12-26T20:17:48.845Z,9.13
2023-12-26T20:20:19.470Z,6.60
2023-12-26T20:22:48.642Z,8.65
2023-12-26T20:25:22.150Z,9.07
2023-12-26T20:27:51.422Z,7.47
2023-12-26T20:30:24.356Z,6.65
2023-12-26T20:32:54.029Z,6.55
2023-12-26T20:35:23.427Z,10.45
2023-12-26T20:37:52.688Z,6.97
2023-12-26T20:40:25.864Z,5.80
2023-12-26T20:42:54.979Z,7.63
2023-12-26T20:45:24.531Z,8.05
2023-12-26T20:47:54.306Z,6.57
2023-12-26T20:50:23.997Z,8.43
2023-12-26T20:52:53.366Z,11.30
2023-12-26T20:55:22.649Z,8.65
2023-12-26T20:57:54.881Z,7.80
2023-12-26T21:00:29.537Z,7.95
2023-12-26T21:02:59.839Z,8.13
2023-12-26T21:05:29.188Z,7.93
2023-12-26T21:07:59.295Z,8.48
2023-12-26T21:10:28.855Z,10.43
2023-12-26T21:13:00.924Z,8.68
2023-12-26T21:15:30.169Z,7.72
2023-12-26T21:18:00.491Z,7.63
2023-12-26T21:20:30.405Z,9.40
2023-12-26T21:22:59.654Z,9.25
2023-12-26T21:25:28.919Z,8.07
2023-12-26T21:28:00.254Z,8.27
2023-12-26T21:30:30.436Z,8.63
2023-12-26T21:32:59.810Z,10.55
2023-12-26T21:35:29.022Z,8.65
2023-12-26T21:37:58.320Z,9.10
2023-12-26T21:40:27.701Z,8.68
2023-12-26T21:42:58.173Z,9.57
2023-12-26T21:45:27.389Z,9.85
2023-12-26T21:47:56.972Z,10.02
2023-12-26T21:50:26.376Z,9.90
2023-12-26T21:52:55.511Z,10.73
2023-12-26T21:55:24.610Z,9.27
2023-12-26T21:57:54.004Z,11.45
2023-12-26T22:00:25.502Z,7.68
2023-12-26T22:02:56.342Z,12.07
2023-12-26T22:05:25.624Z,9.43
2023-12-26T22:07:55.225Z,8.25
2023-12-26T22:10:24.688Z,7.30
2023-12-26T22:12:53.857Z,8.93
2023-12-26T22:15:24.750Z,6.47
2023-12-26T22:17:54.278Z,7.28
2023-12-26T22:20:23.576Z,7.03
2023-12-26T22:22:52.702Z,8.10
2023-12-26T22:25:22.263Z,8.40
2023-12-26T22:27:51.520Z,9.27
2023-12-26T22:30:21.548Z,9.95
2023-12-26T22:32:53.627Z,8.05
2023-12-26T22:35:22.086Z,6.65
2023-12-26T22:37:51.534Z,8.27
2023-12-26T22:40:23.637Z,9.15
2023-12-26T22:42:53.428Z,10.88
2023-12-26T22:45:22.820Z,11.63
2023-12-26T22:47:53.956Z,10.23
2023-12-26T22:50:23.131Z,10.82
2023-12-26T22:52:53.219Z,9.25
2023-12-26T22:55:22.435Z,10.95
2023-12-26T22:57:51.546Z,14.40
2023-12-26T23:00:22.745Z,15.15
2023-12-26T23:02:53.441Z,10.23
2023-12-26T23:05:24.513Z,10.40
2023-12-26T23:07:55.495Z,10.55
2023-12-26T23:10:25.001Z,10.77
2023-12-26T23:12:54.186Z,12.70
2023-12-26T23:15:23.677Z,10.05
2023-12-26T23:17:54.519Z,10.45
2023-12-26T23:20:23.789Z,12.93
2023-12-26T23:22:52.972Z,11.77
2023-12-26T23:25:22.203Z,11.25
2023-12-26T23:27:51.309Z,8.15
2023-12-26T23:30:20.533Z,7.88
2023-12-26T23:32:49.915Z,7.07
2023-12-26T23:35:20.703Z,9.55
2023-12-26T23:37:50.051Z,9.77
2023-12-26T23:40:19.282Z,10.73
2023-12-26T23:42:48.384Z,12.85
2023-12-26T23:45:17.716Z,9.30
2023-12-26T23:47:47.024Z,9.82
2023-12-26T23:50:16.397Z,9.80
2023-12-26T23:52:46.902Z,10.07
2023-12-26T23:55:16.196Z,10.55
2023-12-26T23:57:45.452Z,11.50
